Time;durP1;ratioP1;P1;durP2;ratioP2;P2;SDS_P1;SDS_P2;PMS_P1;PMS_P2;Temp;Humidity;BMP_temperature;BMP_pressure;BME280_temperature;BME280_humidity;BME280_pressure;Samples;Min_cycle;Max_cycle;Signal;HPM_P1;HPM_P2
2023/09/22 00:00:11;;;;;;;0.40;0.40;;;;;;;14.08;100.00;99917.84;5075381;28;20144;-88
2023/09/22 00:02:39;;;;;;;0.40;0.40;;;;;;;14.11;100.00;99918.41;5074497;28;20536;-86
2023/09/22 00:05:12;;;;;;;0.40;0.40;;;;;;;14.08;100.00;99922.44;5074125;28;20052;-87
2023/09/22 00:07:40;;;;;;;0.40;0.40;;;;;;;14.14;100.00;99926.06;5075069;28;20055;-87
2023/09/22 00:10:08;;;;;;;0.40;0.40;;;;;;;14.14;100.00;99921.47;5075836;28;20055;-86
2023/09/22 00:12:35;;;;;;;0.40;0.40;;;;;;;14.18;100.00;99927.19;5074659;28;20049;-88
2023/09/22 00:15:03;;;;;;;0.40;0.40;;;;;;;14.21;100.00;99919.41;5073123;28;20040;-86
2023/09/22 00:17:37;;;;;;;0.40;0.40;;;;;;;14.31;100.00;99924.19;5074308;28;20141;-86
2023/09/22 00:20:08;;;;;;;0.40;0.40;;;;;;;14.36;100.00;99929.69;5073878;28;20040;-86
2023/09/22 00:22:36;;;;;;;0.40;0.40;;;;;;;14.38;100.00;99921.28;5073372;28;20118;-86
2023/09/22 00:25:03;;;;;;;0.40;0.40;;;;;;;14.41;100.00;99927.06;5074649;28;20067;-86
2023/09/22 00:27:31;;;;;;;0.40;0.40;;;;;;;14.39;100.00;99926.50;5076095;28;20048;-86
2023/09/22 00:29:58;;;;;;;0.40;0.40;;;;;;;14.41;100.00;99937.13;5075388;28;20123;-87
2023/09/22 00:32:26;;;;;;;0.30;0.30;;;;;;;14.43;100.00;99929.53;5056560;28;20492;-86
2023/09/22 00:34:53;;;;;;;0.40;0.40;;;;;;;14.41;100.00;99929.78;5073961;28;20049;-86
2023/09/22 00:37:21;;;;;;;0.40;0.40;;;;;;;14.41;100.00;99929.78;5074086;28;20322;-87
2023/09/22 00:39:48;;;;;;;0.40;0.40;;;;;;;14.38;100.00;99926.72;5074251;28;20067;-88
2023/09/22 00:42:16;;;;;;;0.40;0.40;;;;;;;14.26;100.00;99921.38;5073789;28;20060;-87
2023/09/22 00:44:44;;;;;;;0.30;0.30;;;;;;;14.24;100.00;99920.81;5073577;28;20083;-86
2023/09/22 00:47:14;;;;;;;0.40;0.40;;;;;;;14.17;100.00;99931.00;5073961;28;20041;-85
2023/09/22 00:49:42;;;;;;;0.40;0.40;;;;;;;14.15;100.00;99928.53;5056369;28;20055;-88
2023/09/22 00:52:10;;;;;;;0.40;0.40;;;;;;;14.14;100.00;99929.59;5072226;28;20525;-86
2023/09/22 00:54:38;;;;;;;0.40;0.40;;;;;;;14.18;100.00;99936.19;5072924;28;20479;-87
2023/09/22 00:57:05;;;;;;;0.40;0.40;;;;;;;14.17;100.00;99939.97;5073283;28;20078;-87
2023/09/22 00:59:33;;;;;;;0.40;0.40;;;;;;;14.19;100.00;99943.25;5075759;28;20060;-87
2023/09/22 01:02:01;;;;;;;0.40;0.40;;;;;;;14.20;100.00;99922.34;5065200;28;20067;-87
2023/09/22 01:04:29;;;;;;;0.40;0.40;;;;;;;14.22;100.00;99925.66;5092466;28;20040;-87
2023/09/22 01:06:57;;;;;;;0.40;0.40;;;;;;;14.22;100.00;99917.50;5093099;28;20521;-87
2023/09/22 01:09:25;;;;;;;0.40;0.40;;;;;;;14.30;100.00;99919.81;5092274;28;20043;-87
2023/09/22 01:11:53;;;;;;;0.38;0.38;;;;;;;14.31;100.00;99922.28;5092413;28;20044;-86
2023/09/22 01:14:20;;;;;;;0.35;0.35;;;;;;;14.36;100.00;99921.56;5092439;28;20779;-86
2023/09/22 01:16:51;;;;;;;0.40;0.40;;;;;;;14.35;100.00;99916.34;5093416;28;20078;-87
2023/09/22 01:19:20;;;;;;;0.40;0.40;;;;;;;14.34;100.00;99920.97;5095269;28;20043;-87
2023/09/22 01:21:48;;;;;;;0.40;0.40;;;;;;;14.26;100.00;99921.38;5094391;28;20051;-88
2023/09/22 01:24:18;;;;;;;0.40;0.40;;;;;;;14.28;100.00;99928.22;5094730;28;20052;-87
2023/09/22 01:26:45;;;;;;;0.30;0.30;;;;;;;14.22;100.00;99933.81;5093741;28;20124;-87
2023/09/22 01:29:12;;;;;;;0.30;0.30;;;;;;;14.12;100.00;99922.78;5076148;28;20054;-86
2023/09/22 01:31:42;;;;;;;0.40;0.40;;;;;;;14.05;100.00;99923.75;5093646;28;20079;-86
2023/09/22 01:34:10;;;;;;;0.40;0.40;;;;;;;14.02;100.00;99926.94;5092538;28;20048;-86
2023/09/22 01:36:38;;;;;;;0.40;0.40;;;;;;;14.00;100.00;99937.25;5092987;28;20052;-86
2023/09/22 01:39:08;;;;;;;0.40;0.40;;;;;;;14.01;100.00;99930.75;5075230;28;20044;-85
2023/09/22 01:41:36;;;;;;;0.30;0.30;;;;;;;14.04;100.00;99934.84;5074550;28;20461;-88
2023/09/22 01:44:03;;;;;;;0.40;0.40;;;;;;;13.98;100.00;99927.69;5092879;28;20048;-87
2023/09/22 01:46:31;;;;;;;0.40;0.40;;;;;;;14.01;100.00;99925.31;5102873;28;20067;-86
2023/09/22 01:48:58;;;;;;;0.30;0.30;;;;;;;14.02;100.00;99942.41;5100020;28;20044;-87
2023/09/22 01:51:25;;;;;;;0.40;0.40;;;;;;;13.98;100.00;99944.81;5093908;28;20052;-87
2023/09/22 01:53:55;;;;;;;0.40;0.40;;;;;;;13.98;100.00;99949.41;5073707;28;20178;-87
2023/09/22 01:56:22;;;;;;;0.40;0.40;;;;;;;13.95;100.00;99941.72;5091304;28;20580;-87
2023/09/22 01:58:49;;;;;;;0.30;0.30;;;;;;;14.00;100.00;99941.81;5074143;28;20052;-88
2023/09/22 02:01:17;;;;;;;0.40;0.40;;;;;;;14.05;100.00;99944.63;5079761;28;20594;-87
2023/09/22 02:03:44;;;;;;;0.40;0.40;;;;;;;14.05;100.00;99945.47;5069877;28;20051;-85
2023/09/22 02:06:12;;;;;;;0.40;0.40;;;;;;;14.05;100.00;99936.50;5071539;28;20078;-87
2023/09/22 02:08:39;;;;;;;0.40;0.40;;;;;;;14.02;100.00;99939.69;5090769;28;20056;-86
2023/09/22 02:11:06;;;;;;;0.40;0.40;;;;;;;13.92;100.00;99937.63;5074404;28;20044;-87
2023/09/22 02:13:34;;;;;;;0.40;0.40;;;;;;;13.85;100.00;99937.78;5095698;28;20098;-86
2023/09/22 02:16:02;;;;;;;0.40;0.40;;;;;;;13.82;100.00;99935.56;5074122;28;20054;-86
2023/09/22 02:18:30;;;;;;;0.40;0.40;;;;;;;13.78;100.00;99939.00;5074115;28;20048;-87
2023/09/22 02:20:57;;;;;;;0.45;0.45;;;;;;;13.81;100.00;99943.94;5071967;28;20067;-85
2023/09/22 02:23:26;;;;;;;0.40;0.40;;;;;;;13.84;100.00;99949.69;5090510;28;20105;-86
2023/09/22 02:25:53;;;;;;;0.38;0.38;;;;;;;13.80;100.00;99943.13;5090087;28;20079;-86
2023/09/22 02:28:22;;;;;;;0.40;0.40;;;;;;;13.81;100.00;99946.66;5058031;28;20135;-86
2023/09/22 02:30:50;;;;;;;0.40;0.40;;;;;;;13.79;100.00;99940.63;5091250;28;20579;-87
2023/09/22 02:33:18;;;;;;;0.40;0.40;;;;;;;13.72;100.00;99950.81;5075279;28;20532;-86
2023/09/22 02:35:45;;;;;;;0.40;0.40;;;;;;;13.70;100.00;99950.22;5092235;28;20054;-86
2023/09/22 02:38:12;;;;;;;0.40;0.40;;;;;;;13.65;100.00;99949.06;5092380;28;20052;-86
2023/09/22 02:40:39;;;;;;;0.43;0.43;;;;;;;13.60;100.00;99951.69;5092526;28;20193;-86
2023/09/22 02:43:07;;;;;;;0.40;0.40;;;;;;;13.56;100.00;99952.41;5081614;28;20151;-89
2023/09/22 02:45:38;;;;;;;0.40;0.40;;;;;;;13.51;100.00;99957.72;5071337;28;20055;-88
2023/09/22 02:48:06;;;;;;;0.40;0.40;;;;;;;13.50;100.00;99959.63;5072863;28;20436;-88
2023/09/22 02:50:35;;;;;;;0.40;0.40;;;;;;;13.48;100.00;99961.75;5075200;28;20391;-87
2023/09/22 02:53:03;;;;;;;0.40;0.40;;;;;;;13.47;100.00;99961.97;5080147;28;20053;-89
2023/09/22 02:55:31;;;;;;;0.40;0.40;;;;;;;13.47;100.00;99967.41;5093153;28;20044;-87
2023/09/22 02:57:58;;;;;;;0.40;0.40;;;;;;;13.45;100.00;99962.22;5093301;28;20054;-86
2023/09/22 03:00:26;;;;;;;0.40;0.40;;;;;;;13.44;100.00;99965.97;5088972;28;20055;-85
2023/09/22 03:02:54;;;;;;;0.40;0.40;;;;;;;13.41;100.00;99955.63;5073142;28;20053;-86
2023/09/22 03:05:23;;;;;;;0.40;0.40;;;;;;;13.43;100.00;99957.03;5054613;28;20056;-86
2023/09/22 03:07:55;;;;;;;0.40;0.40;;;;;;;13.44;100.00;99963.28;5063113;28;20044;-85
2023/09/22 03:10:23;;;;;;;0.30;0.30;;;;;;;13.43;100.00;99973.31;5072110;28;20104;-87
2023/09/22 03:12:52;;;;;;;0.40;0.40;;;;;;;13.38;100.00;99967.78;5078887;28;20540;-85
2023/09/22 03:15:21;;;;;;;0.40;0.40;;;;;;;13.33;100.00;99969.56;5094097;28;20148;-85
2023/09/22 03:17:50;;;;;;;0.40;0.40;;;;;;;13.35;100.00;99976.41;5093768;28;20054;-85
2023/09/22 03:20:17;;;;;;;0.40;0.40;;;;;;;13.41;100.00;99970.00;5093659;28;20047;-84
2023/09/22 03:22:45;;;;;;;0.40;0.40;;;;;;;13.50;100.00;99975.88;5093777;28;20502;-85
2023/09/22 03:25:14;;;;;;;0.40;0.40;;;;;;;13.59;100.00;99977.13;5077029;28;20063;-85
2023/09/22 03:27:42;;;;;;;0.40;0.40;;;;;;;13.69;100.00;99976.53;5093516;28;20055;-85
2023/09/22 03:30:12;;;;;;;0.50;0.50;;;;;;;13.75;100.00;99982.88;5093675;28;20101;-84
2023/09/22 03:32:41;;;;;;;0.40;0.40;;;;;;;13.83;100.00;99980.63;5093082;28;20519;-85
2023/09/22 03:35:13;;;;;;;0.40;0.40;;;;;;;13.81;100.00;99977.31;5093420;28;20052;-85
2023/09/22 03:37:42;;;;;;;0.40;0.40;;;;;;;13.91;100.00;99981.28;5093406;28;20143;-85
2023/09/22 03:40:32;;;;;;;0.40;0.40;;;;;;;13.84;100.00;99971.41;5094278;28;20043;-85
2023/09/22 03:43:00;;;;;;;0.43;0.43;;;;;;;13.92;100.00;99978.31;5094276;28;20051;-86
2023/09/22 03:45:27;;;;;;;0.50;0.50;;;;;;;13.91;100.00;99981.28;5095031;28;20418;-84
2023/09/22 03:47:54;;;;;;;0.40;0.40;;;;;;;13.90;100.00;99987.78;5076276;28;20036;-84
2023/09/22 03:50:22;;;;;;;0.40;0.40;;;;;;;13.87;100.00;99981.78;5093197;28;20510;-85
2023/09/22 03:52:49;;;;;;;0.35;0.35;;;;;;;13.88;100.00;99978.00;5071508;28;20094;-85
2023/09/22 03:55:17;;;;;;;0.40;0.40;;;;;;;13.90;100.00;99976.91;5070478;28;20502;-85
2023/09/22 03:57:45;;;;;;;0.40;0.40;;;;;;;13.99;100.00;99983.59;5067647;28;20044;-84
2023/09/22 04:00:19;;;;;;;0.40;0.40;;;;;;;14.02;100.00;99985.84;5071769;28;20063;-86
2023/09/22 04:02:50;;;;;;;0.40;0.40;;;;;;;14.06;100.00;99984.28;5056545;28;20425;-86
2023/09/22 04:05:18;;;;;;;0.40;0.40;;;;;;;14.08;100.00;99976.72;5039733;28;20102;-85
2023/09/22 04:07:48;;;;;;;0.40;0.40;;;;;;;14.09;100.00;99972.94;5017694;28;20095;-86
2023/09/22 04:10:16;;;;;;;0.45;0.45;;;;;;;14.14;100.00;99996.66;5053149;28;20428;-86
2023/09/22 04:12:44;;;;;;;0.40;0.40;;;;;;;14.16;100.00;99987.19;5058602;28;20136;-85
2023/09/22 04:15:12;;;;;;;0.40;0.40;;;;;;;14.22;100.00;99993.53;5054985;28;20052;-87
2023/09/22 04:17:39;;;;;;;0.40;0.40;;;;;;;14.29;100.00;100005.88;5054432;28;20049;-86
2023/09/22 04:20:08;;;;;;;0.40;0.40;;;;;;;14.36;100.00;100005.75;5061826;28;20045;-86
2023/09/22 04:22:36;;;;;;;0.40;0.40;;;;;;;14.37;100.00;100007.38;5065183;28;20555;-87
2023/09/22 04:25:11;;;;;;;0.40;0.40;;;;;;;14.45;100.00;100003.44;5066196;28;20053;-86
2023/09/22 04:27:44;;;;;;;0.35;0.35;;;;;;;14.46;100.00;100008.63;5062469;28;20069;-87
2023/09/22 04:30:16;;;;;;;0.40;0.40;;;;;;;14.46;100.00;100002.38;5061959;28;20053;-92
2023/09/22 04:32:57;;;;;;;0.50;0.50;;;;;;;14.56;100.00;100013.44;5035289;28;20095;-91
2023/09/22 04:35:24;;;;;;;0.40;0.40;;;;;;;14.60;100.00;100016.47;5066788;28;20049;-88
2023/09/22 04:37:53;;;;;;;0.40;0.40;;;;;;;14.62;100.00;100014.34;5062883;28;20088;-86
2023/09/22 04:40:24;;;;;;;0.40;0.40;;;;;;;14.65;100.00;100019.28;5079067;28;20056;-89
2023/09/22 04:42:56;;;;;;;0.40;0.40;;;;;;;14.70;100.00;100024.78;5054090;28;20048;-87
2023/09/22 04:45:24;;;;;;;0.40;0.40;;;;;;;14.79;100.00;100020.59;5047629;28;20136;-88
2023/09/22 04:47:52;;;;;;;0.40;0.40;;;;;;;14.82;100.00;100019.28;5070550;28;20049;-89
2023/09/22 04:50:21;;;;;;;0.40;0.40;;;;;;;14.85;100.00;100013.34;5002205;28;20041;-90
2023/09/22 04:52:53;;;;;;;0.40;0.40;;;;;;;14.90;100.00;100019.69;5070823;28;20575;-88
2023/09/22 04:55:22;;;;;;;0.40;0.40;;;;;;;15.00;100.00;100021.75;5083125;28;20040;-90
2023/09/22 04:57:50;;;;;;;0.40;0.40;;;;;;;15.07;100.00;100027.00;5051262;28;20044;-90
2023/09/22 05:00:23;;;;;;;0.40;0.40;;;;;;;15.12;100.00;100027.91;5071856;28;20502;-88
2023/09/22 05:02:59;;;;;;;0.40;0.40;;;;;;;15.14;100.00;100014.03;5082983;28;20048;-87
2023/09/22 05:05:28;;;;;;;0.40;0.40;;;;;;;15.23;100.00;100025.31;5081001;28;20131;-88
2023/09/22 05:08:05;;;;;;;0.40;0.40;;;;;;;15.35;100.00;100039.66;5056722;28;20063;-88
2023/09/22 05:10:34;;;;;;;0.40;0.40;;;;;;;15.43;100.00;100036.50;5060091;28;20040;-87
2023/09/22 05:13:03;;;;;;;0.40;0.40;;;;;;;15.51;100.00;100041.50;5073874;28;20051;-89
2023/09/22 05:15:31;;;;;;;0.40;0.40;;;;;;;15.63;100.00;100040.56;5075312;28;20055;-89
2023/09/22 05:17:58;;;;;;;0.40;0.40;;;;;;;15.69;100.00;100034.09;5072661;28;20045;-89
2023/09/22 05:20:26;;;;;;;0.40;0.40;;;;;;;15.77;100.00;100036.41;5075001;28;20051;-88
2023/09/22 05:22:53;;;;;;;0.43;0.43;;;;;;;15.90;100.00;100056.97;5076848;28;20055;-87
2023/09/22 05:25:20;;;;;;;0.40;0.40;;;;;;;15.97;100.00;100047.53;5071807;28;20139;-88
2023/09/22 05:27:48;;;;;;;0.40;0.40;;;;;;;16.10;100.00;100051.75;5065799;28;20049;-87
2023/09/22 05:30:15;;;;;;;0.40;0.40;;;;;;;16.18;99.57;100043.16;5062720;28;20053;-86
2023/09/22 05:32:43;;;;;;;0.40;0.40;;;;;;;16.21;98.21;100037.19;5056352;28;20479;-89
2023/09/22 05:35:11;;;;;;;0.40;0.40;;;;;;;16.31;96.25;100041.91;5054337;28;20079;-88
2023/09/22 05:37:38;;;;;;;0.40;0.40;;;;;;;16.47;95.25;100056.50;5062427;28;20507;-87
2023/09/22 05:40:12;;;;;;;0.40;0.40;;;;;;;16.53;94.26;100058.19;5063702;28;20454;-90
2023/09/22 05:42:42;;;;;;;0.40;0.40;;;;;;;16.66;93.47;100065.13;5060621;28;20045;-88
2023/09/22 05:45:10;;;;;;;0.40;0.40;;;;;;;16.70;92.58;100055.34;5060360;28;20479;-90
2023/09/22 05:47:37;;;;;;;0.40;0.40;;;;;;;16.83;91.71;100062.31;5040920;28;20064;-87
2023/09/22 05:50:05;;;;;;;0.40;0.40;;;;;;;16.90;89.56;100061.00;5050811;28;20045;-87
2023/09/22 05:52:34;;;;;;;0.40;0.40;;;;;;;16.89;87.43;100056.66;5034101;28;20045;-87
2023/09/22 05:55:01;;;;;;;0.40;0.40;;;;;;;17.01;85.75;100067.34;5057004;28;20136;-87
2023/09/22 05:57:30;;;;;;;0.32;0.32;;;;;;;16.92;85.13;100052.56;5058551;28;20045;-86
2023/09/22 05:59:57;;;;;;;0.40;0.40;;;;;;;17.06;83.69;100077.47;5048773;28;20140;-87
2023/09/22 06:02:25;;;;;;;0.40;0.40;;;;;;;17.16;82.23;100077.56;5055599;28;20050;-85
2023/09/22 06:04:55;;;;;;;0.40;0.40;;;;;;;17.20;81.58;100075.13;5059656;28;20447;-85
2023/09/22 06:07:22;;;;;;;0.40;0.40;;;;;;;17.27;80.66;100090.19;5061063;28;20583;-85
2023/09/22 06:09:50;;;;;;;0.30;0.30;;;;;;;17.38;80.08;100082.88;5053076;28;20136;-88
2023/09/22 06:12:17;;;;;;;0.40;0.40;;;;;;;17.53;79.54;100084.91;5050142;28;20067;-87
2023/09/22 06:14:45;;;;;;;0.40;0.40;;;;;;;17.61;78.68;100092.56;5054277;28;20063;-86
2023/09/22 06:17:12;;;;;;;0.40;0.40;;;;;;;17.59;77.19;100081.09;5057039;28;20577;-87
2023/09/22 06:19:39;;;;;;;0.38;0.38;;;;;;;17.66;76.27;100078.97;5056571;28;20049;-86
2023/09/22 06:22:07;;;;;;;0.40;0.40;;;;;;;17.73;75.03;100087.72;5061567;28;20471;-84
2023/09/22 06:24:34;;;;;;;0.40;0.40;;;;;;;17.96;74.41;100089.22;5053506;28;20063;-84
2023/09/22 06:27:02;;;;;;;0.40;0.40;;;;;;;17.98;73.65;100080.78;5060084;28;20049;-85
2023/09/22 06:29:31;;;;;;;0.40;0.40;;;;;;;18.05;73.32;100075.88;5059320;28;20068;-87
2023/09/22 06:31:58;;;;;;;0.40;0.40;;;;;;;18.24;72.88;100089.88;5055867;28;20114;-87
2023/09/22 06:34:25;;;;;;;0.40;0.40;;;;;;;18.31;71.81;100101.38;5058794;28;20102;-86
2023/09/22 06:36:53;;;;;;;0.40;0.40;;;;;;;18.33;72.07;100084.69;5054790;28;20094;-88
2023/09/22 06:39:20;;;;;;;0.30;0.30;;;;;;;18.52;71.05;100101.41;5051803;28;20396;-86
2023/09/22 06:41:47;;;;;;;0.30;0.30;;;;;;;18.57;70.11;100094.03;5056340;28;20072;-86
2023/09/22 06:44:18;;;;;;;0.30;0.30;;;;;;;18.58;69.46;100103.91;5060103;28;20120;-87
2023/09/22 06:46:45;;;;;;;0.40;0.40;;;;;;;18.54;69.42;100091.84;5042507;28;20499;-84
2023/09/22 06:49:13;;;;;;;0.30;0.30;;;;;;;18.75;69.30;100102.81;5055198;28;20048;-86
2023/09/22 06:51:41;;;;;;;0.30;0.30;;;;;;;18.73;68.29;100103.09;5055072;28;20040;-85
2023/09/22 06:54:08;;;;;;;0.38;0.38;;;;;;;18.79;68.28;100098.50;5055370;28;20535;-87
2023/09/22 06:56:35;;;;;;;0.40;0.40;;;;;;;18.87;68.18;100091.66;5060177;28;20511;-92
2023/09/22 06:59:18;;;;;;;0.40;0.40;;;;;;;19.01;68.83;100093.53;5071723;28;20053;-88
2023/09/22 07:01:46;;;;;;;0.40;0.40;;;;;;;19.23;67.99;100100.66;5061461;28;20052;-89
2023/09/22 07:04:19;;;;;;;0.40;0.40;;;;;;;19.47;67.09;100115.41;5074797;28;20060;-88
2023/09/22 07:06:49;;;;;;;0.40;0.40;;;;;;;19.54;66.21;100106.91;5086638;28;20187;-88
2023/09/22 07:09:16;;;;;;;0.40;0.40;;;;;;;19.73;65.57;100115.38;5088240;28;20045;-89
2023/09/22 07:11:44;;;;;;;0.40;0.40;;;;;;;19.77;63.50;100127.41;5063747;28;20050;-88
2023/09/22 07:14:11;;;;;;;0.40;0.40;;;;;;;19.64;63.13;100100.59;5079656;28;20054;-90
2023/09/22 07:16:39;;;;;;;0.40;0.40;;;;;;;19.77;62.72;100121.13;5062067;28;20218;-89
2023/09/22 07:19:06;;;;;;;0.30;0.30;;;;;;;19.86;62.60;100113.97;5077228;28;20529;-89
2023/09/22 07:21:34;;;;;;;0.40;0.40;;;;;;;20.11;61.66;100113.88;5080029;28;20045;-87
2023/09/22 07:24:07;;;;;;;0.40;0.40;;;;;;;20.29;61.03;100117.91;5062226;28;20049;-88
2023/09/22 07:26:38;;;;;;;0.40;0.40;;;;;;;20.42;61.21;100110.16;5078779;28;20044;-87
2023/09/22 07:29:05;;;;;;;0.40;0.40;;;;;;;20.63;60.16;100124.59;5075520;28;20511;-88
2023/09/22 07:31:33;;;;;;;0.40;0.40;;;;;;;20.81;58.33;100109.38;5076978;28;20057;-89
2023/09/22 07:34:01;;;;;;;0.40;0.40;;;;;;;20.82;58.42;100124.75;5076346;28;20041;-87
2023/09/22 07:36:29;;;;;;;0.40;0.40;;;;;;;20.91;58.13;100117.53;5076283;28;20097;-88
2023/09/22 07:38:57;;;;;;;0.40;0.40;;;;;;;21.01;56.59;100117.47;5078751;28;20044;-88
2023/09/22 07:41:30;;;;;;;0.40;0.40;;;;;;;21.03;55.34;100125.41;5044389;28;20048;-88
2023/09/22 07:43:59;;;;;;;0.40;0.40;;;;;;;21.17;54.68;100121.72;5042774;28;20079;-87
2023/09/22 07:46:26;;;;;;;0.40;0.40;;;;;;;21.31;54.61;100115.56;5080382;28;20053;-88
2023/09/22 07:48:56;;;;;;;0.40;0.40;;;;;;;21.53;53.32;100123.34;5050596;28;20052;-89
2023/09/22 07:51:24;;;;;;;0.40;0.40;;;;;;;21.53;53.26;100110.44;5077235;28;20052;-89
2023/09/22 07:53:56;;;;;;;0.40;0.40;;;;;;;21.66;52.55;100116.34;5079331;28;20056;-88
2023/09/22 07:56:25;;;;;;;0.40;0.40;;;;;;;21.79;52.93;100121.16;5080557;28;20095;-89
2023/09/22 07:58:53;;;;;;;0.40;0.40;;;;;;;22.22;52.56;100121.19;5061614;28;20147;-89
2023/09/22 08:01:42;;;;;;;0.40;0.40;;;;;;;22.78;51.06;100125.09;5076887;28;20061;-89
2023/09/22 08:04:11;;;;;;;0.40;0.40;;;;;;;23.08;49.32;100126.56;5075960;28;20055;-89
2023/09/22 08:06:39;;;;;;;0.40;0.40;;;;;;;23.42;47.90;100126.28;5075608;28;20045;-87
2023/09/22 08:09:07;;;;;;;0.40;0.40;;;;;;;23.94;47.09;100126.16;5079274;28;20045;-88
2023/09/22 08:11:35;;;;;;;0.40;0.40;;;;;;;24.11;45.52;100120.81;5081133;28;20045;-86
2023/09/22 08:14:03;;;;;;;0.32;0.32;;;;;;;24.47;44.85;100135.81;5080850;28;20056;-88
2023/09/22 08:16:30;;;;;;;0.40;0.40;;;;;;;24.73;42.97;100125.81;5059250;28;20414;-88
2023/09/22 08:18:58;;;;;;;0.40;0.40;;;;;;;24.75;42.92;100128.28;5080114;28;20519;-86
2023/09/22 08:21:28;;;;;;;0.40;0.40;;;;;;;24.84;43.31;100137.47;5058661;28;20052;-89
2023/09/22 08:23:56;;;;;;;0.40;0.40;;;;;;;24.77;42.21;100129.59;5041306;28;20076;-87
2023/09/22 08:26:26;;;;;;;0.30;0.30;;;;;;;24.88;41.71;100135.69;5075984;28;20045;-86
2023/09/22 08:28:54;;;;;;;0.40;0.40;;;;;;;25.24;40.18;100121.03;5076252;28;20090;-88
2023/09/22 08:31:21;;;;;;;0.40;0.40;;;;;;;25.69;39.86;100126.47;5076148;28;20045;-86
2023/09/22 08:33:48;;;;;;;0.30;0.30;;;;;;;25.51;38.91;100131.09;5075997;28;20041;-87
2023/09/22 08:36:16;;;;;;;0.40;0.40;;;;;;;25.47;39.20;100136.47;5059909;28;20081;-88
2023/09/22 08:38:45;;;;;;;0.30;0.30;;;;;;;25.98;38.03;100130.69;5076290;28;20454;-87
2023/09/22 08:41:13;;;;;;;0.35;0.35;;;;;;;26.29;37.61;100125.88;5072685;28;20056;-86
2023/09/22 08:43:41;;;;;;;0.30;0.30;;;;;;;26.55;37.16;100127.91;5072786;28;20102;-89
2023/09/22 08:46:08;;;;;;;0.30;0.30;;;;;;;26.93;36.51;100128.06;5072241;28;20076;-87
2023/09/22 08:48:35;;;;;;;0.35;0.35;;;;;;;26.67;35.78;100122.53;5075452;28;20071;-88
2023/09/22 08:51:04;;;;;;;0.35;0.35;;;;;;;26.78;35.46;100131.34;5072991;28;20052;-86
2023/09/22 08:53:32;;;;;;;0.38;0.38;;;;;;;26.92;34.53;100117.34;5075248;28;20060;-88
2023/09/22 08:56:01;;;;;;;0.40;0.40;;;;;;;26.98;34.88;100127.91;5080607;28;20192;-87
2023/09/22 08:58:37;;;;;;;0.40;0.40;;;;;;;27.42;33.58;100125.06;5062213;28;20052;-89
2023/09/22 09:01:05;;;;;;;0.40;0.40;;;;;;;27.79;32.57;100120.72;5074433;28;20462;-87
2023/09/22 09:03:32;;;;;;;0.30;0.30;;;;;;;28.17;32.14;100127.41;5073291;28;20063;-87
2023/09/22 09:06:06;;;;;;;0.30;0.30;;;;;;;27.60;32.02;100125.84;5073406;28;20079;-85
2023/09/22 09:08:34;;;;;;;0.38;0.38;;;;;;;27.49;32.72;100125.38;5056699;28;20461;-87
2023/09/22 09:11:10;;;;;;;0.30;0.30;;;;;;;27.93;30.57;100128.84;5072953;28;20040;-88
2023/09/22 09:13:38;;;;;;;0.30;0.30;;;;;;;27.66;30.90;100128.09;5073245;28;20053;-86
2023/09/22 09:16:07;;;;;;;0.30;0.30;;;;;;;27.53;30.98;100134.69;5073461;28;20521;-86
2023/09/22 09:18:35;;;;;;;0.40;0.40;;;;;;;27.47;31.26;100130.44;5072921;28;20446;-88
2023/09/22 09:21:14;;;;;;;0.40;0.40;;;;;;;27.83;30.83;100113.41;5073077;28;20135;-87
2023/09/22 09:23:54;;;;;;;0.40;0.40;;;;;;;28.19;30.47;100114.81;5072018;28;20079;-88
2023/09/22 09:26:31;;;;;;;0.40;0.40;;;;;;;28.69;29.46;100118.75;5073899;28;20058;-88
2023/09/22 09:28:59;;;;;;;0.40;0.40;;;;;;;28.78;29.24;100124.22;5073898;28;20131;-88
2023/09/22 09:31:46;;;;;;;0.40;0.40;;;;;;;28.64;29.25;100118.97;5073041;28;20083;-87
2023/09/22 09:34:16;;;;;;;0.30;0.30;;;;;;;28.01;29.75;100124.41;5062520;28;20045;-86
2023/09/22 09:36:44;;;;;;;0.40;0.40;;;;;;;28.00;28.90;100123.56;5069163;28;20055;-92
2023/09/22 09:39:12;;;;;;;0.40;0.40;;;;;;;28.17;28.73;100116.31;5068878;28;20106;-88
2023/09/22 09:41:43;;;;;;;0.40;0.40;;;;;;;28.74;27.57;100124.91;5064102;28;20132;-86
2023/09/22 09:44:11;;;;;;;0.40;0.40;;;;;;;28.93;27.28;100104.97;5067263;28;20053;-87
2023/09/22 09:46:42;;;;;;;0.40;0.40;;;;;;;29.31;27.25;100106.72;5079864;28;20044;-85
2023/09/22 09:49:11;;;;;;;0.40;0.40;;;;;;;29.77;26.94;100090.84;5078304;28;20500;-87
2023/09/22 09:51:40;;;;;;;0.40;0.40;;;;;;;29.42;26.62;100104.31;5076481;28;20055;-87
2023/09/22 09:54:08;;;;;;;0.30;0.30;;;;;;;29.39;26.35;100110.56;5077730;28;20132;-87
2023/09/22 09:56:39;;;;;;;0.40;0.40;;;;;;;29.76;26.05;100111.47;5082376;28;20044;-85
2023/09/22 09:59:08;;;;;;;0.40;0.40;;;;;;;30.20;25.39;100106.13;5080814;28;20558;-87
2023/09/22 10:01:36;;;;;;;0.40;0.40;;;;;;;30.16;24.81;100109.97;5064632;28;20091;-86
2023/09/22 10:04:04;;;;;;;0.38;0.38;;;;;;;29.69;25.18;100104.88;5069436;28;20503;-87
2023/09/22 10:06:33;;;;;;;0.30;0.30;;;;;;;29.81;25.51;100135.47;5075760;28;20113;-86
2023/09/22 10:09:16;;;;;;;0.30;0.30;;;;;;;29.84;24.84;100115.31;5030754;28;20045;-88
2023/09/22 10:11:43;;;;;;;0.32;0.32;;;;;;;30.02;24.56;100105.56;5077042;28;20419;-88
2023/09/22 10:14:43;;;;;;;0.40;0.40;;;;;;;30.24;24.10;100123.78;5078226;28;20135;-87
2023/09/22 10:17:22;;;;;;;0.30;0.30;;;;;;;30.15;24.77;100108.34;5059840;28;20829;-88
2023/09/22 10:19:51;;;;;;;0.32;0.32;;;;;;;30.65;24.59;100101.53;5078504;28;20082;-85
2023/09/22 10:22:18;;;;;;;0.30;0.30;;;;;;;30.75;24.33;100089.06;5053928;28;20044;-87
2023/09/22 10:24:46;;;;;;;0.30;0.30;;;;;;;31.07;23.56;100093.59;5071894;28;20048;-87
2023/09/22 10:27:28;;;;;;;0.40;0.40;;;;;;;30.86;22.99;100095.78;5071818;28;20044;-86
2023/09/22 10:29:55;;;;;;;0.30;0.30;;;;;;;30.24;23.54;100107.06;5070487;28;20155;-85
2023/09/22 10:32:27;;;;;;;0.40;0.40;;;;;;;30.16;23.52;100105.22;5071732;28;20476;-86
2023/09/22 10:35:10;;;;;;;0.40;0.40;;;;;;;30.70;23.30;100106.03;5078242;28;20057;-85
2023/09/22 10:37:57;;;;;;;0.30;0.30;;;;;;;30.82;23.15;100106.03;5051491;28;20052;-86
2023/09/22 10:40:24;;;;;;;0.38;0.38;;;;;;;30.50;23.42;100125.34;5069827;28;20102;-87
2023/09/22 10:42:51;;;;;;;0.40;0.40;;;;;;;30.16;23.28;100118.31;5069509;28;20098;-87
2023/09/22 10:45:21;;;;;;;0.30;0.30;;;;;;;30.66;22.88;100094.78;5058102;28;20056;-88
2023/09/22 10:47:49;;;;;;;0.35;0.35;;;;;;;30.95;23.07;100096.44;5050422;28;20504;-86
2023/09/22 10:50:32;;;;;;;0.30;0.30;;;;;;;30.50;22.98;100110.63;5050558;28;20076;-86
2023/09/22 10:53:04;;;;;;;0.40;0.40;;;;;;;29.91;23.98;100103.59;5055269;28;20482;-85
2023/09/22 10:55:38;;;;;;;0.40;0.40;;;;;;;30.54;23.59;100106.78;5063711;28;20056;-87
2023/09/22 10:58:06;;;;;;;;;;;;;;;30.71;22.70;100104.88;5061346;28;20055;-86
2023/09/22 11:00:44;;;;;;;0.40;0.40;;;;;;;30.45;23.08;100106.09;5060754;28;19925;-86
2023/09/22 11:03:14;;;;;;;0.40;0.40;;;;;;;30.46;23.05;100091.00;5060594;28;20057;-85
2023/09/22 11:05:43;;;;;;;0.30;0.30;;;;;;;29.91;23.64;100098.03;5027127;28;20079;-86
2023/09/22 11:08:17;;;;;;;0.40;0.40;;;;;;;30.24;23.48;100078.44;5058061;28;20491;-85
2023/09/22 11:10:50;;;;;;;0.30;0.30;;;;;;;30.49;23.18;100104.25;5057478;28;20517;-86
2023/09/22 11:13:24;;;;;;;0.30;0.30;;;;;;;30.41;23.25;100083.72;5059198;28;20063;-87
2023/09/22 11:15:57;;;;;;;0.40;0.40;;;;;;;30.77;23.06;100079.19;5053755;28;20059;-85
2023/09/22 11:18:31;;;;;;;0.40;0.40;;;;;;;30.80;22.89;100083.25;5056801;28;20044;-86
2023/09/22 11:21:04;;;;;;;0.40;0.40;;;;;;;30.78;22.97;100069.66;5062107;28;20047;-85
2023/09/22 11:23:35;;;;;;;0.30;0.30;;;;;;;31.16;22.83;100075.91;5078420;28;20139;-86
2023/09/22 11:26:08;;;;;;;0.30;0.30;;;;;;;30.90;23.04;100071.63;5053328;28;20055;-85
2023/09/22 11:28:45;;;;;;;0.30;0.30;;;;;;;31.00;23.06;100076.69;5012515;28;20088;-85
2023/09/22 11:31:15;;;;;;;0.40;0.40;;;;;;;31.09;22.99;100080.13;5028971;28;20067;-84
2023/09/22 11:33:44;;;;;;;0.35;0.35;;;;;;;30.94;23.41;100075.31;5062572;28;20060;-85